Time;durP1;ratioP1;P1;durP2;ratioP2;P2;SDS_P1;SDS_P2;PMS_P1;PMS_P2;Temp;Humidity;BMP_temperature;BMP_pressure;BME280_temperature;BME280_humidity;BME280_pressure;Samples;Min_cycle;Max_cycle;Signal;HPM_P1;HPM_P2
2022/11/20 00:02:17;;;;;;;7.40;6.55;;;21.40;36.30;;;;;;5036756;28;20040;-58
2022/11/20 00:04:43;;;;;;;7.72;6.90;;;21.40;36.50;;;;;;5055348;28;20514;-58
2022/11/20 00:07:09;;;;;;;6.40;5.80;;;21.40;36.40;;;;;;5057912;28;20716;-60
2022/11/20 00:09:35;;;;;;;7.40;6.70;;;21.40;36.40;;;;;;5056984;28;20028;-59
2022/11/20 00:12:01;;;;;;;7.40;6.70;;;21.40;36.30;;;;;;5051153;28;20117;-58
2022/11/20 00:14:27;;;;;;;7.82;7.03;;;21.30;36.30;;;;;;5021974;28;20470;-57
2022/11/20 00:16:53;;;;;;;7.40;6.70;;;21.30;36.30;;;;;;5053737;28;20047;-59
2022/11/20 00:19:19;;;;;;;6.55;5.95;;;21.30;36.30;;;;;;5051518;28;20601;-57
2022/11/20 00:21:45;;;;;;;7.03;6.32;;;21.30;36.30;;;;;;5051740;28;20029;-59
2022/11/20 00:24:11;;;;;;;6.90;6.30;;;21.30;36.20;;;;;;5052488;28;20087;-59
2022/11/20 00:26:37;;;;;;;6.88;6.28;;;21.20;36.20;;;;;;5066693;28;20045;-59
2022/11/20 00:29:03;;;;;;;7.13;6.43;;;21.20;36.20;;;;;;5054730;28;20059;-58
2022/11/20 00:31:30;;;;;;;6.13;5.57;;;21.20;36.30;;;;;;5052859;28;20041;-58
2022/11/20 00:33:56;;;;;;;6.57;5.97;;;21.20;36.20;;;;;;5052233;28;20420;-58
2022/11/20 00:36:24;;;;;;;7.13;6.43;;;21.20;36.10;;;;;;5050867;28;20036;-58
2022/11/20 00:38:55;;;;;;;6.80;6.20;;;21.10;36.10;;;;;;5051066;28;20462;-59
2022/11/20 00:41:21;;;;;;;7.75;6.22;;;21.10;36.00;;;;;;5053250;28;20792;-58
2022/11/20 00:43:47;;;;;;;6.72;6.13;;;21.10;36.10;;;;;;5052583;28;20044;-59
2022/11/20 00:46:19;;;;;;;6.88;6.28;;;21.10;36.00;;;;;;5051673;28;20041;-58
2022/11/20 00:48:46;;;;;;;6.80;6.20;;;21.10;36.00;;;;;;5051532;28;20075;-58
2022/11/20 00:51:15;;;;;;;7.18;6.57;;;21.00;36.00;;;;;;5056272;28;20043;-59
2022/11/20 00:53:42;;;;;;;7.10;6.43;;;21.00;36.00;;;;;;5052372;28;20037;-60
2022/11/20 00:56:12;;;;;;;6.82;6.22;;;21.00;36.10;;;;;;5032858;28;20043;-58
2022/11/20 00:58:39;;;;;;;6.72;6.13;;;21.00;36.00;;;;;;5051211;28;20044;-57
2022/11/20 01:01:08;;;;;;;6.50;5.90;;;21.00;36.10;;;;;;5052446;28;20040;-58
2022/11/20 01:03:39;;;;;;;6.78;6.18;;;20.90;35.90;;;;;;5053651;28;20045;-60
2022/11/20 01:06:06;;;;;;;;;;;20.90;35.90;;;;;;5032516;28;20044;-59
2022/11/20 01:08:36;;;;;;;6.72;6.13;;;20.90;35.70;;;;;;5051246;28;20009;-58
2022/11/20 01:11:08;;;;;;;7.07;6.38;;;20.80;36.00;;;;;;5050674;28;20029;-59
2022/11/20 01:13:36;;;;;;;7.40;6.80;;;20.80;36.00;;;;;;5051418;28;20479;-58
2022/11/20 01:16:09;;;;;;;6.65;6.05;;;20.80;35.90;;;;;;5051164;28;20392;-58
2022/11/20 01:18:35;;;;;;;6.82;6.18;;;20.80;35.90;;;;;;5052369;28;20041;-60
2022/11/20 01:21:06;;;;;;;7.47;6.78;;;20.80;35.90;;;;;;5051210;28;20040;-58
2022/11/20 01:23:34;;;;;;;7.85;7.05;;;20.80;35.80;;;;;;5052886;28;20029;-59
2022/11/20 01:26:04;;;;;;;7.22;6.53;;;20.70;35.80;;;;;;5065654;28;20233;-58
2022/11/20 01:28:30;;;;;;;6.70;6.10;;;20.70;35.80;;;;;;5052394;28;20036;-59
2022/11/20 01:30:57;;;;;;;7.00;6.40;;;20.70;35.70;;;;;;5036884;28;20041;-58
2022/11/20 01:33:23;;;;;;;6.80;6.20;;;20.70;35.70;;;;;;5051381;28;20046;-58
2022/11/20 01:35:49;;;;;;;7.13;6.40;;;20.70;35.70;;;;;;5042561;28;20036;-58
2022/11/20 01:38:16;;;;;;;6.90;6.30;;;20.70;35.70;;;;;;5053838;28;20040;-59
2022/11/20 01:40:42;;;;;;;7.05;6.45;;;20.60;35.60;;;;;;5040493;28;20055;-57
2022/11/20 01:43:20;;;;;;;7.43;6.50;;;20.60;35.70;;;;;;5054468;28;20041;-58
2022/11/20 01:46:06;;;;;;;6.72;6.10;;;20.60;35.50;;;;;;5056317;28;20053;-58
2022/11/20 01:48:38;;;;;;;7.10;6.43;;;20.60;35.50;;;;;;5056082;28;20041;-58
2022/11/20 01:51:06;;;;;;;6.57;5.97;;;20.50;35.50;;;;;;5054967;28;20044;-59
2022/11/20 01:53:36;;;;;;;6.95;6.35;;;20.50;35.50;;;;;;5054627;28;20485;-58
2022/11/20 01:56:05;;;;;;;7.07;6.38;;;20.50;35.50;;;;;;5038684;28;20035;-59
2022/11/20 01:58:35;;;;;;;7.03;6.40;;;20.50;35.40;;;;;;5051713;28;20210;-59
2022/11/20 02:01:01;;;;;;;6.67;6.07;;;20.50;35.40;;;;;;5040568;28;20510;-58
2022/11/20 02:03:27;;;;;;;7.00;6.40;;;20.50;35.50;;;;;;5056238;28;20067;-58
2022/11/20 02:06:17;;;;;;;6.80;6.20;;;20.40;35.40;;;;;;5055029;28;20283;-58
2022/11/20 02:08:43;;;;;;;6.25;5.65;;;20.40;35.20;;;;;;5053628;28;20131;-59
2022/11/20 02:11:09;;;;;;;5.85;5.35;;;20.40;35.50;;;;;;5050977;28;20127;-60
2022/11/20 02:13:44;;;;;;;6.07;5.55;;;20.30;35.40;;;;;;5055040;28;20118;-58
2022/11/20 02:16:16;;;;;;;5.75;5.25;;;20.30;35.40;;;;;;5025026;28;20094;-58
2022/11/20 02:18:44;;;;;;;6.00;5.50;;;20.30;35.40;;;;;;5052985;28;20071;-57
2022/11/20 02:21:19;;;;;;;5.47;4.97;;;20.30;35.40;;;;;;5054349;28;20446;-59
2022/11/20 02:23:54;;;;;;;5.63;5.10;;;20.30;35.40;;;;;;5038622;28;20132;-59
2022/11/20 02:26:22;;;;;;;5.45;4.95;;;20.30;35.30;;;;;;5059848;28;20086;-58
2022/11/20 02:28:48;;;;;;;5.35;4.85;;;20.20;35.40;;;;;;5053524;28;20053;-59
2022/11/20 02:31:14;;;;;;;4.90;4.50;;;20.20;35.40;;;;;;5045501;28;20041;-58
2022/11/20 02:33:40;;;;;;;5.22;4.72;;;20.20;35.40;;;;;;5056327;28;20059;-58
2022/11/20 02:36:14;;;;;;;5.70;5.07;;;20.20;35.40;;;;;;5054062;28;20533;-59
2022/11/20 02:38:41;;;;;;;5.35;4.85;;;20.20;35.30;;;;;;5053406;28;20492;-57
2022/11/20 02:41:07;;;;;;;5.10;4.68;;;20.10;35.30;;;;;;5051613;28;20055;-59
2022/11/20 02:43:33;;;;;;;6.35;4.60;;;20.10;35.30;;;;;;5053786;28;20036;-59
2022/11/20 02:45:58;;;;;;;5.05;4.65;;;20.10;35.30;;;;;;5055038;28;20081;-58
2022/11/20 02:48:24;;;;;;;4.90;4.47;;;20.10;35.30;;;;;;5053478;28;20048;-58
2022/11/20 02:50:50;;;;;;;5.28;4.55;;;20.10;35.40;;;;;;5052467;28;20036;-60
2022/11/20 02:53:16;;;;;;;4.80;4.40;;;20.10;35.30;;;;;;5055161;28;20040;-58
2022/11/20 02:55:42;;;;;;;4.95;4.55;;;20.00;35.30;;;;;;5053230;28;20717;-60
2022/11/20 02:58:08;;;;;;;5.22;4.80;;;20.00;35.30;;;;;;5055267;28;20111;-59
2022/11/20 03:00:35;;;;;;;4.35;3.95;;;20.00;35.30;;;;;;5060885;28;20044;-59
2022/11/20 03:03:01;;;;;;;4.75;4.15;;;20.00;35.30;;;;;;5052942;28;20036;-58
2022/11/20 03:05:27;;;;;;;5.70;4.30;;;20.00;35.30;;;;;;5054355;28;20139;-59
2022/11/20 03:07:53;;;;;;;4.20;3.83;;;19.90;35.20;;;;;;5038973;28;20044;-59
2022/11/20 03:10:19;;;;;;;4.97;4.57;;;19.90;35.20;;;;;;5051262;28;20040;-58
2022/11/20 03:12:45;;;;;;;4.60;4.22;;;19.90;35.20;;;;;;5053324;28;20041;-60
2022/11/20 03:15:11;;;;;;;4.32;3.92;;;19.90;35.20;;;;;;5037975;28;20076;-59
2022/11/20 03:17:38;;;;;;;5.75;4.03;;;19.90;35.20;;;;;;5052600;28;20075;-57
2022/11/20 03:20:05;;;;;;;4.15;3.85;;;19.90;35.20;;;;;;5052948;28;20033;-59
2022/11/20 03:22:32;;;;;;;4.13;3.72;;;19.90;35.30;;;;;;5052151;28;20068;-58
2022/11/20 03:24:58;;;;;;;5.43;4.15;;;19.80;35.30;;;;;;5050546;28;20065;-59
2022/11/20 03:27:23;;;;;;;4.65;3.95;;;19.80;35.20;;;;;;5053273;28;20044;-59
2022/11/20 03:29:49;;;;;;;7.00;4.05;;;19.80;35.30;;;;;;5054891;28;20094;-60
2022/11/20 03:32:15;;;;;;;4.80;4.35;;;19.80;35.30;;;;;;5051203;28;20048;-59
2022/11/20 03:34:41;;;;;;;4.75;3.83;;;19.80;35.30;;;;;;5050498;28;20179;-60
2022/11/20 03:37:06;;;;;;;4.28;3.88;;;19.80;35.30;;;;;;5052357;28;20033;-59
2022/11/20 03:39:32;;;;;;;4.15;3.85;;;19.80;35.30;;;;;;5053830;28;20101;-59
2022/11/20 03:41:58;;;;;;;4.50;4.10;;;19.70;35.20;;;;;;5050818;28;20041;-58
2022/11/20 03:44:23;;;;;;;4.40;4.00;;;19.70;35.20;;;;;;5052386;28;20063;-58
2022/11/20 03:46:49;;;;;;;4.63;4.22;;;19.70;35.20;;;;;;5053862;28;20044;-58
2022/11/20 03:49:15;;;;;;;4.18;3.40;;;19.60;35.20;;;;;;5053150;28;20036;-58
2022/11/20 03:51:40;;;;;;;4.55;4.15;;;19.60;35.20;;;;;;5053378;28;20066;-59
2022/11/20 03:54:07;;;;;;;4.85;4.45;;;19.60;35.20;;;;;;5054545;28;20072;-59
2022/11/20 03:56:35;;;;;;;4.40;4.00;;;19.60;35.20;;;;;;5059531;28;20040;-57
2022/11/20 03:59:02;;;;;;;4.57;4.18;;;19.60;35.20;;;;;;5053817;28;20040;-58
2022/11/20 04:01:34;;;;;;;4.20;3.80;;;19.60;35.20;;;;;;5052799;28;20051;-58
2022/11/20 04:04:00;;;;;;;4.20;3.90;;;19.60;35.20;;;;;;5026646;28;20044;-58
2022/11/20 04:06:30;;;;;;;4.45;4.05;;;19.60;35.30;;;;;;5052580;28;20044;-58
2022/11/20 04:08:57;;;;;;;4.63;4.00;;;19.50;35.10;;;;;;5053614;28;20043;-58
2022/11/20 04:11:27;;;;;;;4.05;3.75;;;19.50;36.00;;;;;;5051711;28;20091;-59
2022/11/20 04:13:55;;;;;;;4.40;4.00;;;19.50;35.30;;;;;;5051942;28;20043;-57
2022/11/20 04:16:23;;;;;;;4.35;4.05;;;19.50;35.20;;;;;;5051190;28;20126;-59
2022/11/20 04:18:59;;;;;;;4.35;3.95;;;19.50;35.30;;;;;;5053277;28;20377;-58
2022/11/20 04:21:26;;;;;;;3.80;3.50;;;19.50;35.20;;;;;;5050522;28;20047;-59
2022/11/20 04:23:52;;;;;;;3.92;3.63;;;19.40;35.20;;;;;;5050927;28;20468;-58
2022/11/20 04:26:19;;;;;;;3.97;3.58;;;19.40;35.20;;;;;;5058921;28;20041;-57
2022/11/20 04:28:45;;;;;;;5.03;4.03;;;19.40;35.20;;;;;;5050908;28;20041;-59
2022/11/20 04:31:13;;;;;;;5.18;3.92;;;19.40;35.20;;;;;;5052920;28;20039;-58
2022/11/20 04:33:39;;;;;;;4.03;3.72;;;19.40;36.00;;;;;;5054209;28;20041;-58
2022/11/20 04:36:07;;;;;;;4.07;3.75;;;19.40;35.30;;;;;;5054562;28;20457;-61
2022/11/20 04:38:33;;;;;;;4.13;3.83;;;19.40;35.20;;;;;;5036525;28;20040;-59
2022/11/20 04:41:06;;;;;;;3.80;3.50;;;19.30;35.20;;;;;;5052683;28;20041;-57
2022/11/20 04:43:33;;;;;;;3.95;3.63;;;19.30;35.20;;;;;;5041299;28;20486;-59
2022/11/20 04:45:59;;;;;;;4.07;3.72;;;19.30;35.30;;;;;;5050226;28;20053;-59
2022/11/20 04:48:27;;;;;;;3.60;3.30;;;19.30;35.30;;;;;;5051864;28;20123;-59
2022/11/20 04:50:53;;;;;;;3.92;3.50;;;19.30;35.20;;;;;;5053031;28;20056;-58
2022/11/20 04:53:20;;;;;;;3.83;3.53;;;19.30;35.30;;;;;;5059418;28;20032;-60
2022/11/20 04:55:45;;;;;;;4.28;3.88;;;19.30;35.30;;;;;;5042433;28;20037;-58
2022/11/20 04:58:12;;;;;;;4.30;3.90;;;19.30;35.30;;;;;;5035216;28;20036;-58
2022/11/20 05:00:38;;;;;;;4.50;4.10;;;19.20;35.40;;;;;;5053063;28;20029;-58
2022/11/20 05:03:04;;;;;;;4.63;3.72;;;19.20;35.30;;;;;;5053457;28;20040;-57
2022/11/20 05:05:29;;;;;;;3.90;3.53;;;19.20;35.40;;;;;;5053301;28;20067;-57
2022/11/20 05:07:58;;;;;;;4.40;3.58;;;19.20;35.30;;;;;;5053263;28;20140;-58
2022/11/20 05:10:25;;;;;;;4.43;3.53;;;19.20;35.30;;;;;;5052180;28;20621;-58
2022/11/20 05:12:51;;;;;;;4.28;3.97;;;19.20;35.40;;;;;;5053268;28;20110;-57
2022/11/20 05:15:16;;;;;;;4.25;3.85;;;19.10;35.20;;;;;;5053579;28;20045;-57
2022/11/20 05:17:48;;;;;;;4.40;4.00;;;19.10;35.30;;;;;;5057121;28;20036;-59
2022/11/20 05:20:13;;;;;;;4.60;4.20;;;19.10;35.30;;;;;;5055315;28;20487;-58
2022/11/20 05:22:39;;;;;;;4.10;3.70;;;19.10;35.30;;;;;;5064074;28;20040;-57
2022/11/20 05:25:05;;;;;;;4.53;4.13;;;19.10;35.30;;;;;;5038509;28;20041;-59
2022/11/20 05:27:31;;;;;;;4.20;3.65;;;19.10;35.30;;;;;;5024311;28;20044;-59
2022/11/20 05:29:56;;;;;;;3.78;3.47;;;19.10;35.30;;;;;;5047149;28;20044;-59
2022/11/20 05:32:25;;;;;;;4.72;4.32;;;19.10;35.30;;;;;;5056552;28;20045;-60
2022/11/20 05:34:52;;;;;;;4.13;3.55;;;19.10;35.30;;;;;;5056735;28;20037;-59
2022/11/20 05:37:17;;;;;;;3.88;3.58;;;19.00;35.20;;;;;;5056673;28;20052;-58
2022/11/20 05:39:43;;;;;;;4.32;3.92;;;19.00;35.30;;;;;;5052077;28;20044;-60
2022/11/20 05:44:53;;;;;;;3.90;3.60;;;19.00;35.30;;;;;;5054042;28;20068;-59
2022/11/20 05:47:19;;;;;;;4.10;3.70;;;19.00;35.30;;;;;;5054847;28;20476;-59
2022/11/20 05:49:45;;;;;;;3.45;3.15;;;19.00;35.30;;;;;;5040321;28;20091;-58
2022/11/20 05:52:11;;;;;;;4.10;3.70;;;19.00;35.30;;;;;;5056765;28;20090;-60
2022/11/20 05:54:36;;;;;;;4.50;4.10;;;19.00;35.30;;;;;;5041135;28;20519;-58
2022/11/20 05:57:02;;;;;;;4.13;3.78;;;19.00;35.30;;;;;;5054532;28;20067;-59
2022/11/20 05:59:27;;;;;;;4.03;3.72;;;19.00;35.30;;;;;;5055079;28;20430;-58
2022/11/20 06:01:53;;;;;;;4.30;3.90;;;19.00;35.30;;;;;;5054651;28;20040;-58
2022/11/20 06:04:19;;;;;;;3.60;3.30;;;19.00;35.30;;;;;;5054077;28;20102;-58
2022/11/20 06:06:44;;;;;;;3.85;3.55;;;19.00;35.30;;;;;;5062289;28;20043;-60
2022/11/20 06:09:11;;;;;;;3.65;3.35;;;18.90;35.30;;;;;;5052323;28;20032;-60
2022/11/20 06:11:36;;;;;;;4.07;3.67;;;19.00;35.40;;;;;;5061801;28;20044;-58
2022/11/20 06:14:02;;;;;;;4.10;3.80;;;19.00;35.30;;;;;;5041031;28;20044;-58
2022/11/20 06:16:28;;;;;;;3.88;3.58;;;19.00;35.40;;;;;;5055563;28;20453;-58
2022/11/20 06:18:54;;;;;;;4.13;3.60;;;19.00;35.40;;;;;;5038507;28;20092;-59
2022/11/20 06:21:21;;;;;;;3.95;3.65;;;19.00;35.30;;;;;;5054022;28;20566;-59
2022/11/20 06:23:48;;;;;;;4.10;3.70;;;19.00;35.50;;;;;;5054870;28;20040;-60
2022/11/20 06:26:16;;;;;;;4.07;3.78;;;19.00;35.40;;;;;;5054763;28;20071;-59
2022/11/20 06:28:42;;;;;;;3.70;3.40;;;19.00;35.40;;;;;;5055101;28;20037;-60
2022/11/20 06:31:11;;;;;;;3.60;3.30;;;19.00;35.40;;;;;;5055252;28;20048;-58
2022/11/20 06:33:38;;;;;;;3.97;3.50;;;19.00;35.50;;;;;;5071545;28;20403;-58
2022/11/20 06:36:04;;;;;;;3.90;3.50;;;19.00;35.40;;;;;;5056126;28;20086;-58
2022/11/20 06:38:30;;;;;;;4.65;3.70;;;19.00;35.50;;;;;;5054431;28;20459;-59
2022/11/20 06:40:56;;;;;;;3.75;3.35;;;19.00;35.60;;;;;;5056440;28;20483;-58
2022/11/20 06:43:24;;;;;;;3.75;3.40;;;19.00;35.60;;;;;;5053766;28;20075;-59
2022/11/20 06:45:55;;;;;;;3.75;3.40;;;19.00;35.60;;;;;;5054325;28;20072;-60
2022/11/20 06:48:23;;;;;;;4.13;3.40;;;19.00;35.60;;;;;;5053689;28;20301;-59
2022/11/20 06:50:48;;;;;;;4.30;3.90;;;19.00;35.70;;;;;;5056718;28;20317;-60
2022/11/20 06:53:16;;;;;;;4.32;3.92;;;19.00;35.70;;;;;;5037426;28;20122;-61
2022/11/20 06:55:44;;;;;;;3.97;3.58;;;18.90;35.70;;;;;;5054255;28;20058;-58
2022/11/20 06:58:10;;;;;;;3.80;3.50;;;19.00;35.70;;;;;;5054196;28;20040;-58
2022/11/20 07:00:37;;;;;;;3.97;3.67;;;18.90;35.70;;;;;;5067700;28;20384;-59
2022/11/20 07:03:08;;;;;;;3.97;3.63;;;19.00;35.70;;;;;;5052457;28;20102;-59
2022/11/20 07:05:34;;;;;;;;;;;19.00;35.80;;;;;;5055957;28;20044;-58
2022/11/20 07:08:01;;;;;;;3.22;2.92;;;18.90;35.50;;;;;;5054888;28;20380;-60
2022/11/20 07:10:28;;;;;;;3.53;3.22;;;18.90;35.90;;;;;;5055839;28;20044;-60
2022/11/20 07:12:54;;;;;;;3.47;3.17;;;18.90;35.80;;;;;;5038304;28;20397;-57
2022/11/20 07:15:23;;;;;;;4.22;3.78;;;18.90;35.80;;;;;;5056447;28;20512;-60
2022/11/20 07:17:49;;;;;;;3.65;3.35;;;18.90;35.80;;;;;;5055014;28;20357;-59
2022/11/20 07:20:15;;;;;;;5.45;3.83;;;18.90;35.80;;;;;;5055278;28;20547;-58
2022/11/20 07:22:42;;;;;;;4.70;4.10;;;19.00;35.80;;;;;;5054485;28;20045;-59
2022/11/20 07:25:09;;;;;;;3.90;3.60;;;19.00;35.90;;;;;;5060724;28;20297;-59
2022/11/20 07:27:37;;;;;;;4.03;3.70;;;19.00;35.90;;;;;;5052984;28;20051;-60
2022/11/20 07:30:04;;;;;;;4.00;3.53;;;18.90;35.80;;;;;;5054157;28;20033;-59
2022/11/20 07:32:33;;;;;;;4.38;3.97;;;19.00;35.90;;;;;;5062003;28;20094;-59
2022/11/20 07:35:00;;;;;;;4.47;3.55;;;19.00;35.90;;;;;;5059797;28;20131;-57
2022/11/20 07:37:26;;;;;;;4.03;3.38;;;19.00;36.00;;;;;;5052549;28;20127;-59
2022/11/20 07:39:51;;;;;;;4.93;4.38;;;19.00;36.00;;;;;;5053523;28;20046;-57
2022/11/20 07:42:17;;;;;;;3.67;3.38;;;19.00;36.00;;;;;;5054477;28;20103;-57
2022/11/20 07:44:43;;;;;;;3.55;3.25;;;19.00;35.90;;;;;;5051793;28;20074;-59
2022/11/20 07:47:10;;;;;;;4.30;3.92;;;19.00;35.90;;;;;;5052009;28;20472;-59
2022/11/20 07:49:36;;;;;;;4.40;3.97;;;19.10;36.00;;;;;;5051191;28;20052;-58
2022/11/20 07:52:02;;;;;;;4.47;3.65;;;19.10;36.00;;;;;;5050033;28;20468;-58
2022/11/20 07:54:29;;;;;;;5.18;3.38;;;19.10;36.10;;;;;;5052549;28;20127;-57
2022/11/20 07:56:55;;;;;;;6.22;3.80;;;19.10;36.40;;;;;;5041293;28;20087;-59
2022/11/20 07:59:23;;;;;;;4.00;3.30;;;19.40;36.30;;;;;;5042638;28;20040;-59
2022/11/20 08:01:49;;;;;;;5.15;3.50;;;19.70;36.00;;;;;;5056869;28;20040;-58
2022/11/20 08:04:16;;;;;;;4.30;3.63;;;20.00;35.60;;;;;;5047868;28;20044;-58
2022/11/20 08:06:45;;;;;;;4.13;3.30;;;20.30;35.30;;;;;;5055075;28;20114;-60
2022/11/20 08:09:13;;;;;;;4.60;3.72;;;20.60;35.00;;;;;;5050371;28;20121;-60
2022/11/20 08:14:29;;;;;;;5.97;3.35;;;20.90;34.60;;;;;;5050855;28;20123;-57
2022/11/20 08:16:55;;;;;;;7.88;3.45;;;21.10;34.80;;;;;;5038414;28;20547;-58
2022/11/20 08:19:21;;;;;;;4.68;3.67;;;21.20;34.70;;;;;;5052023;28;20032;-58
2022/11/20 08:21:48;;;;;;;4.47;3.30;;;21.30;34.80;;;;;;5052042;28;20051;-59
2022/11/20 08:24:14;;;;;;;4.60;3.75;;;21.30;34.70;;;;;;5038275;28;20063;-58
2022/11/20 08:26:41;;;;;;;3.95;3.47;;;21.40;34.80;;;;;;5050700;28;20078;-59
2022/11/20 08:29:08;;;;;;;3.95;3.40;;;21.40;34.80;;;;;;5035685;28;20049;-59
2022/11/20 08:31:33;;;;;;;4.57;3.33;;;21.40;34.70;;;;;;5052237;28;20043;-59
2022/11/20 08:33:59;;;;;;;8.95;3.40;;;21.50;34.80;;;;;;5049073;28;20712;-58
2022/11/20 08:36:25;;;;;;;4.07;3.30;;;21.50;34.80;;;;;;5033479;28;20063;-61
2022/11/20 08:38:54;;;;;;;5.00;3.70;;;21.50;34.90;;;;;;5053526;28;20037;-59
2022/11/20 08:41:30;;;;;;;4.68;3.67;;;21.50;34.90;;;;;;5019477;28;20029;-60
2022/11/20 08:44:01;;;;;;;6.15;4.13;;;21.50;35.80;;;;;;5052397;28;20892;-59
2022/11/20 08:46:37;;;;;;;6.60;4.05;;;21.60;35.10;;;;;;5057085;28;20185;-59
2022/11/20 08:49:06;;;;;;;8.88;3.83;;;21.60;35.00;;;;;;5053273;28;20110;-59
2022/11/20 08:51:34;;;;;;;;;;;21.60;35.10;;;;;;5039503;28;20300;-61
2022/11/20 08:54:02;;;;;;;5.10;3.78;;;21.60;35.10;;;;;;5056281;28;19920;-60
2022/11/20 08:56:33;;;;;;;5.65;3.83;;;21.60;35.20;;;;;;5037007;28;20036;-59
2022/11/20 08:59:01;;;;;;;6.97;3.72;;;21.60;35.10;;;;;;5045130;28;20124;-59
2022/11/20 09:01:29;;;;;;;4.75;3.67;;;21.70;35.10;;;;;;5055994;28;20040;-58
2022/11/20 09:03:59;;;;;;;4.10;3.63;;;21.70;35.10;;;;;;5044656;28;20495;-59
2022/11/20 09:06:35;;;;;;;4.35;3.70;;;21.70;35.10;;;;;;5046245;28;20075;-57
2022/11/20 09:09:05;;;;;;;6.18;3.65;;;21.70;35.10;;;;;;5041130;28;20036;-60
2022/11/20 09:11:32;;;;;;;4.45;3.72;;;21.80;35.10;;;;;;5043020;28;20764;-58
2022/11/20 09:13:58;;;;;;;6.03;4.15;;;21.80;35.10;;;;;;5058732;28;20744;-57
2022/11/20 09:16:24;;;;;;;4.00;3.47;;;21.80;35.10;;;;;;5057162;28;20048;-58
2022/11/20 09:18:50;;;;;;;4.68;3.65;;;21.80;35.20;;;;;;5051884;28;20090;-57
2022/11/20 09:21:16;;;;;;;5.20;3.90;;;21.80;35.10;;;;;;5054934;28;20160;-59
2022/11/20 09:23:42;;;;;;;5.72;4.00;;;21.80;35.10;;;;;;5053983;28;20136;-58
2022/11/20 09:26:12;;;;;;;5.22;3.90;;;21.80;35.00;;;;;;5055119;28;20136;-59
2022/11/20 09:28:39;;;;;;;7.93;4.05;;;21.80;35.00;;;;;;5056091;28;20425;-59
2022/11/20 09:31:11;;;;;;;5.97;3.83;;;21.80;35.10;;;;;;5049874;28;20044;-59
2022/11/20 09:33:37;;;;;;;7.28;4.00;;;21.80;35.30;;;;;;5054790;28;20115;-58
2022/11/20 09:36:03;;;;;;;4.95;3.97;;;21.80;35.40;;;;;;5055067;28;20036;-59
2022/11/20 09:38:29;;;;;;;4.18;3.75;;;21.90;35.80;;;;;;5039646;28;20041;-60
2022/11/20 09:41:03;;;;;;;5.68;3.42;;;21.90;36.00;;;;;;5055511;28;20047;-60
2022/11/20 09:43:49;;;;;;;4.20;3.78;;;21.90;36.30;;;;;;5054508;28;20515;-58
2022/11/20 09:46:36;;;;;;;13.27;3.65;;;21.90;36.70;;;;;;5054873;28;20400;-59
2022/11/20 09:49:39;;;;;;;4.78;3.67;;;22.00;37.00;;;;;;5052723;28;20138;-56
2022/11/20 09:52:14;;;;;;;6.47;3.30;;;21.90;37.30;;;;;;5042320;28;20056;-60
2022/11/20 09:54:41;;;;;;;5.60;3.60;;;21.90;37.40;;;;;;5036897;28;20036;-59
2022/11/20 09:57:17;;;;;;;6.05;3.90;;;22.00;37.70;;;;;;5053055;28;20032;-59
2022/11/20 09:59:45;;;;;;;5.68;4.53;;;21.90;37.90;;;;;;5058825;28;20120;-59
2022/11/20 10:02:34;;;;;;;9.20;4.50;;;22.00;38.00;;;;;;5052856;28;20037;-60
2022/11/20 10:05:19;;;;;;;5.05;4.28;;;22.00;38.20;;;;;;5055906;28;20495;-60
2022/11/20 10:08:08;;;;;;;5.35;3.97;;;22.00;38.30;;;;;;5054162;28;20044;-57
2022/11/20 10:10:43;;;;;;;4.78;3.72;;;22.00;38.30;;;;;;5060818;28;20052;-58
2022/11/20 10:13:54;;;;;;;4.65;3.95;;;22.00;38.40;;;;;;5054977;28;20051;-58
2022/11/20 10:16:46;;;;;;;7.93;3.72;;;22.00;38.60;;;;;;5002708;28;20053;-58
2022/11/20 10:19:27;;;;;;;6.15;4.00;;;21.90;38.70;;;;;;5036541;28;20075;-58
2022/11/20 10:22:20;;;;;;;5.80;3.75;;;22.00;39.00;;;;;;5035189;28;20044;-58
2022/11/20 10:24:48;;;;;;;4.57;4.00;;;22.00;39.00;;;;;;5049638;28;20049;-59
2022/11/20 10:27:40;;;;;;;4.38;3.60;;;22.00;39.00;;;;;;5052045;28;20531;-60
2022/11/20 10:30:06;;;;;;;4.25;3.85;;;22.00;39.00;;;;;;5057109;28;20032;-59
2022/11/20 10:32:38;;;;;;;4.75;4.00;;;22.00;39.00;;;;;;5050610;28;20036;-61
2022/11/20 10:35:13;;;;;;;4.28;3.72;;;22.00;39.00;;;;;;5051124;28;20099;-58
2022/11/20 10:37:43;;;;;;;5.05;3.80;;;22.00;39.60;;;;;;5050741;28;20079;-59
2022/11/20 10:40:42;;;;;;;4.03;3.63;;;22.00;39.10;;;;;;5057403;28;20039;-57
2022/11/20 10:43:32;;;;;;;6.05;3.88;;;22.00;39.10;;;;;;5054110;28;20399;-59
2022/11/20 10:46:01;;;;;;;4.10;3.70;;;22.00;39.20;;;;;;5054581;28;20156;-58
2022/11/20 10:48:28;;;;;;;4.28;3.72;;;22.00;39.20;;;;;;5056100;28;20306;-60
2022/11/20 10:51:12;;;;;;;6.15;3.80;;;22.00;39.20;;;;;;5044656;28;20701;-60
2022/11/20 10:54:02;;;;;;;6.75;3.90;;;22.10;39.40;;;;;;5047548;28;20052;-57
2022/11/20 10:56:52;;;;;;;4.07;3.45;;;22.10;39.30;;;;;;5054010;28;20064;-59
2022/11/20 10:59:45;;;;;;;3.78;3.33;;;22.10;39.30;;;;;;5051751;28;20576;-58
2022/11/20 11:02:33;;;;;;;7.53;3.72;;;22.10;39.30;;;;;;5052731;28;20033;-57
2022/11/20 11:05:22;;;;;;;3.47;3.17;;;22.10;39.30;;;;;;5051023;28;20052;-58
2022/11/20 11:07:52;;;;;;;5.10;3.30;;;22.10;39.20;;;;;;5053338;28;20047;-58
2022/11/20 11:10:25;;;;;;;4.10;3.37;;;22.10;39.20;;;;;;5050089;28;20387;-59
2022/11/20 11:12:51;;;;;;;3.50;3.20;;;22.10;39.20;;;;;;5044951;28;20721;-59
2022/11/20 11:15:38;;;;;;;6.03;3.35;;;22.20;39.20;;;;;;5051237;28;20041;-57
2022/11/20 11:18:04;;;;;;;6.50;3.42;;;22.10;39.10;;;;;;5052169;28;20738;-57
2022/11/20 11:20:31;;;;;;;4.07;3.20;;;22.10;39.60;;;;;;5053350;28;20056;-59
2022/11/20 11:22:59;;;;;;;3.42;3.13;;;22.10;39.00;;;;;;5053726;28;20040;-59
2022/11/20 11:25:27;;;;;;;5.45;3.20;;;22.10;39.00;;;;;;5050087;28;20053;-56
2022/11/20 11:27:56;;;;;;;4.00;3.30;;;22.10;39.00;;;;;;5058280;28;20158;-56
2022/11/20 11:30:23;;;;;;;3.55;3.25;;;22.10;38.90;;;;;;5053922;28;20084;-58
2022/11/20 11:32:49;;;;;;;4.80;3.63;;;22.10;38.90;;;;;;5056891;28;20603;-58
2022/11/20 11:35:28;;;;;;;3.30;2.97;;;22.10;38.90;;;;;;5052476;28;20040;-58
2022/11/20 11:38:29;;;;;;;3.67;3.10;;;22.10;38.70;;;;;;5053422;28;20040;-59
2022/11/20 11:40:57;;;;;;;3.72;3.28;;;22.10;38.60;;;;;;5025986;28;20052;-57
2022/11/20 11:46:29;;;;;;;3.80;3.05;;;22.10;38.60;;;;;;5052955;28;20055;-59
2022/11/20 11:49:18;;;;;;;4.03;3.25;;;22.10;38.50;;;;;;5059012;28;20484;-59
2022/11/20 11:52:09;;;;;;;3.53;3.13;;;22.20;38.30;;;;;;5054368;28;20143;-59
2022/11/20 11:54:35;;;;;;;;;;;22.10;38.50;;;;;;5054985;28;20156;-58
2022/11/20 11:57:04;;;;;;;3.70;3.30;;;22.20;38.90;;;;;;5051361;28;20347;-59
2022/11/20 11:59:54;;;;;;;3.63;3.33;;;22.20;39.00;;;;;;5054135;28;20691;-58
2022/11/20 12:02:34;;;;;;;4.45;3.42;;;22.20;39.70;;;;;;5052155;28;20044;-59
2022/11/20 12:05:09;;;;;;;5.88;3.05;;;22.20;40.50;;;;;;5048986;28;20095;-59
2022/11/20 12:07:42;;;;;;;5.38;3.58;;;22.20;40.80;;;;;;5055397;28;20912;-58
2022/11/20 12:10:22;;;;;;;3.25;2.95;;;22.20;41.20;;;;;;5053762;28;20036;-59
2022/11/20 12:12:54;;;;;;;5.70;3.47;;;22.20;41.90;;;;;;5050584;28;20082;-57
2022/11/20 12:15:29;;;;;;;4.90;3.28;;;22.20;41.80;;;;;;5052895;28;20135;-59
2022/11/20 12:17:55;;;;;;;5.15;3.25;;;22.20;41.70;;;;;;5052641;28;20498;-60
2022/11/20 12:20:34;;;;;;;4.60;3.60;;;22.20;41.70;;;;;;5043104;28;20518;-58
2022/11/20 12:23:09;;;;;;;5.85;3.50;;;22.20;41.60;;;;;;5052284;28;20243;-57
2022/11/20 12:25:36;;;;;;;7.32;3.33;;;22.20;41.30;;;;;;5049869;28;20064;-58
2022/11/20 12:28:20;;;;;;;4.32;3.25;;;22.20;41.30;;;;;;5052582;28;20071;-59
2022/11/20 12:31:39;;;;;;;5.00;3.55;;;22.20;41.20;;;;;;5035963;28;20487;-59
2022/11/20 12:34:25;;;;;;;4.57;3.63;;;22.20;41.00;;;;;;5048179;28;20044;-59
2022/11/20 12:37:23;;;;;;;4.90;3.25;;;22.20;41.00;;;;;;5052592;28;20079;-59
2022/11/20 12:39:52;;;;;;;4.10;3.55;;;22.20;40.90;;;;;;5028754;28;20045;-59
2022/11/20 12:45:42;;;;;;;4.20;3.10;;;22.20;40.70;;;;;;5055228;28;20429;-59
2022/11/20 12:48:36;;;;;;;5.72;3.38;;;22.20;40.50;;;;;;5052219;28;20041;-60
2022/11/20 12:51:21;;;;;;;6.75;3.47;;;22.20;40.40;;;;;;5051719;28;20036;-58
2022/11/20 12:53:59;;;;;;;4.25;3.20;;;22.20;40.40;;;;;;5039004;28;20377;-59
2022/11/20 12:56:44;;;;;;;6.65;3.60;;;22.20;40.40;;;;;;5049214;28;20041;-60
2022/11/20 12:59:38;;;;;;;6.63;3.35;;;22.20;40.40;;;;;;5051563;28;20468;-59
2022/11/20 13:02:25;;;;;;;5.85;3.47;;;22.20;40.40;;;;;;5052659;28;20507;-59
2022/11/20 13:05:21;;;;;;;9.85;3.88;;;22.20;40.40;;;;;;5052979;28;20395;-59
2022/11/20 13:07:49;;;;;;;6.63;3.30;;;22.20;40.40;;;;;;5054167;28;20048;-59
2022/11/20 13:10:41;;;;;;;5.70;3.58;;;22.10;40.40;;;;;;5053706;28;20075;-60
2022/11/20 13:13:33;;;;;;;6.80;3.60;;;22.10;40.40;;;;;;5053759;28;20045;-58
2022/11/20 13:16:11;;;;;;;4.75;2.97;;;22.10;40.50;;;;;;5049994;28;20198;-58
2022/11/20 13:18:42;;;;;;;8.32;3.92;;;22.20;40.40;;;;;;5052871;28;20591;-59